createdAt,value
2024-05-09T00:00:29.669Z,8.888889
2024-05-09T00:01:19.708Z,8.888889
2024-05-09T00:02:20.643Z,8.888889
2024-05-09T00:03:19.844Z,8.888889
2024-05-09T00:04:19.834Z,8.833333
2024-05-09T00:05:20.138Z,8.888889
2024-05-09T00:06:19.897Z,8.888889
2024-05-09T00:07:19.957Z,8.888889
2024-05-09T00:08:19.953Z,8.888889
2024-05-09T00:09:19.996Z,8.888889
2024-05-09T00:10:28.779Z,8.888889
2024-05-09T00:11:19.651Z,8.888889
2024-05-09T00:12:19.751Z,8.888889
2024-05-09T00:13:19.742Z,8.888889
2024-05-09T00:14:19.812Z,8.944444
2024-05-09T00:15:21.051Z,8.888889
2024-05-09T00:16:20.612Z,8.888889
2024-05-09T00:17:19.920Z,8.888889
2024-05-09T00:18:18.534Z,8.944444
2024-05-09T00:19:20.282Z,8.888889
2024-05-09T00:20:24.622Z,8.944444
2024-05-09T00:21:20.073Z,8.888889
2024-05-09T00:22:20.074Z,8.944444
2024-05-09T00:23:19.831Z,8.944444
2024-05-09T00:24:21.516Z,8.944444
2024-05-09T00:25:19.839Z,8.944444
2024-05-09T00:26:19.915Z,9.000000
2024-05-09T00:27:19.863Z,9.000000
2024-05-09T00:28:19.938Z,9.000000
2024-05-09T00:29:20.444Z,9.000000
2024-05-09T00:30:27.968Z,9.000000
2024-05-09T00:31:20.002Z,9.000000
2024-05-09T00:32:18.721Z,9.055556
2024-05-09T00:33:20.555Z,9.055556
2024-05-09T00:34:20.279Z,9.055556
2024-05-09T00:35:19.808Z,9.055556
2024-05-09T00:36:19.751Z,9.055556
2024-05-09T00:37:19.789Z,9.055556
2024-05-09T00:38:19.831Z,9.055556
2024-05-09T00:39:19.877Z,9.055556
2024-05-09T00:40:30.717Z,9.055556
2024-05-09T00:41:20.148Z,9.055556
2024-05-09T00:42:19.991Z,9.055556
2024-05-09T00:43:20.037Z,9.000000
2024-05-09T00:44:20.162Z,9.055556
2024-05-09T00:45:19.568Z,9.055556
2024-05-09T00:46:19.620Z,9.055556
2024-05-09T00:47:20.030Z,9.055556
2024-05-09T00:48:21.477Z,9.055556
2024-05-09T00:49:19.887Z,9.055556
2024-05-09T00:50:29.335Z,9.111111
2024-05-09T00:51:20.035Z,9.055556
2024-05-09T00:52:19.905Z,9.055556
2024-05-09T00:53:18.534Z,9.055556
2024-05-09T00:54:20.166Z,9.055556
2024-05-09T00:55:19.816Z,9.055556
2024-05-09T00:56:19.914Z,9.055556
2024-05-09T00:57:20.000Z,9.111111
2024-05-09T00:58:19.931Z,9.055556
2024-05-09T00:59:20.051Z,9.055556
2024-05-09T01:00:26.855Z,9.055556
2024-05-09T01:01:20.080Z,9.055556
2024-05-09T01:02:20.249Z,9.055556
2024-05-09T01:03:20.368Z,9.055556
2024-05-09T01:04:19.749Z,9.111111
2024-05-09T01:05:19.762Z,9.055556
2024-05-09T01:06:21.833Z,9.055556
2024-05-09T01:07:18.432Z,9.055556
2024-05-09T01:08:20.013Z,9.111111
2024-05-09T01:09:20.019Z,9.055556
2024-05-09T01:10:27.620Z,9.055556
2024-05-09T01:11:20.179Z,9.055556
2024-05-09T01:12:20.341Z,9.055556
2024-05-09T01:13:20.203Z,9.055556
2024-05-09T01:14:19.832Z,9.055556
2024-05-09T01:15:19.757Z,9.055556
2024-05-09T01:16:19.763Z,9.055556
2024-05-09T01:17:19.951Z,9.055556
2024-05-09T01:18:19.992Z,9.055556
2024-05-09T01:19:19.919Z,9.055556
2024-05-09T01:20:27.794Z,9.000000
2024-05-09T01:21:18.593Z,9.000000
2024-05-09T01:22:20.524Z,9.000000
2024-05-09T01:23:20.114Z,9.000000
2024-05-09T01:24:20.075Z,9.000000
2024-05-09T01:25:20.204Z,8.944444
2024-05-09T01:26:20.328Z,8.944444
2024-05-09T01:27:19.749Z,8.944444
2024-05-09T01:28:19.981Z,8.944444
2024-05-09T01:29:20.018Z,8.944444
2024-05-09T01:30:24.377Z,8.944444
2024-05-09T01:31:19.916Z,8.944444
2024-05-09T01:32:20.040Z,8.944444
2024-05-09T01:33:20.305Z,8.944444
2024-05-09T01:34:20.079Z,8.888889
2024-05-09T01:35:18.606Z,8.888889
2024-05-09T01:36:20.238Z,8.888889
2024-05-09T01:37:19.662Z,8.888889
2024-05-09T01:38:19.910Z,8.888889
2024-05-09T01:39:19.798Z,8.888889
2024-05-09T01:40:25.330Z,8.888889
2024-05-09T01:41:19.897Z,8.888889
2024-05-09T01:42:18.494Z,8.888889
2024-05-09T01:43:19.937Z,8.833333
2024-05-09T01:44:20.076Z,8.833333
2024-05-09T01:45:20.089Z,8.833333
2024-05-09T01:46:20.175Z,8.833333
2024-05-09T01:47:20.333Z,8.888889
2024-05-09T01:48:20.418Z,8.833333
2024-05-09T01:49:18.995Z,8.833333
2024-05-09T01:50:28.962Z,8.833333
2024-05-09T01:51:19.962Z,8.888889
2024-05-09T01:52:19.832Z,8.833333
2024-05-09T01:53:19.945Z,8.833333
2024-05-09T01:54:20.153Z,8.888889
2024-05-09T01:55:20.071Z,8.833333
2024-05-09T01:56:18.597Z,8.888889
2024-05-09T01:57:20.124Z,8.833333
2024-05-09T01:58:20.092Z,8.888889
2024-05-09T01:59:20.274Z,8.888889
2024-05-09T02:00:26.373Z,8.888889
2024-05-09T02:01:20.349Z,8.944444
2024-05-09T02:02:19.955Z,8.944444
2024-05-09T02:03:18.753Z,8.888889
2024-05-09T02:04:20.210Z,8.888889
2024-05-09T02:05:20.073Z,8.944444
2024-05-09T02:06:19.974Z,8.944444
2024-05-09T02:07:21.266Z,8.944444
2024-05-09T02:08:20.299Z,9.000000
2024-05-09T02:09:20.164Z,9.055556
2024-05-09T02:10:26.013Z,9.055556
2024-05-09T02:11:20.398Z,9.055556
2024-05-09T02:12:19.918Z,9.055556
2024-05-09T02:13:19.860Z,9.111111
2024-05-09T02:14:19.824Z,9.166667
2024-05-09T02:15:20.384Z,9.166667
2024-05-09T02:16:19.883Z,9.166667
2024-05-09T02:17:18.665Z,9.166667
2024-05-09T02:18:20.166Z,9.166667
2024-05-09T02:19:20.237Z,9.166667
2024-05-09T02:20:30.061Z,9.222222
2024-05-09T02:21:20.176Z,9.222222
2024-05-09T02:22:20.416Z,9.277778
2024-05-09T02:23:20.300Z,9.277778
2024-05-09T02:24:18.849Z,9.277778
2024-05-09T02:25:19.942Z,9.333333
2024-05-09T02:26:20.958Z,9.333333
2024-05-09T02:27:19.932Z,9.444444
2024-05-09T02:28:19.974Z,9.444444
2024-05-09T02:29:18.586Z,9.500000
2024-05-09T02:30:29.892Z,9.500000
2024-05-09T02:31:18.693Z,9.500000
2024-05-09T02:32:20.215Z,9.555556
2024-05-09T02:33:22.379Z,9.555556
2024-05-09T02:34:20.286Z,9.611111
2024-05-09T02:35:20.365Z,9.611111
2024-05-09T02:36:20.341Z,9.611111
2024-05-09T02:37:21.701Z,9.611111
2024-05-09T02:38:18.487Z,9.666667
2024-05-09T02:39:19.980Z,9.666667
2024-05-09T02:40:25.694Z,9.722222
2024-05-09T02:41:18.601Z,9.722222
2024-05-09T02:42:20.127Z,9.777778
2024-05-09T02:43:20.159Z,9.777778
2024-05-09T02:44:20.264Z,9.777778
2024-05-09T02:45:18.698Z,9.777778
2024-05-09T02:46:20.368Z,9.777778
2024-05-09T02:47:22.800Z,9.777778
2024-05-09T02:48:18.558Z,9.833333
2024-05-09T02:49:20.057Z,9.833333
2024-05-09T02:50:29.058Z,9.833333
2024-05-09T02:51:20.094Z,9.833333
2024-05-09T02:52:18.552Z,9.888889
2024-05-09T02:53:18.773Z,9.888889
2024-05-09T02:54:20.164Z,9.888889
2024-05-09T02:55:20.158Z,9.888889
2024-05-09T02:56:20.288Z,9.944444
2024-05-09T02:57:20.317Z,9.944444
2024-05-09T02:58:18.444Z,9.944444
2024-05-09T02:59:18.987Z,9.944444
2024-05-09T03:00:26.436Z,9.944444
2024-05-09T03:01:20.134Z,9.944444
2024-05-09T03:02:20.120Z,9.944444
2024-05-09T03:03:20.240Z,9.888889
2024-05-09T03:04:20.168Z,9.888889
2024-05-09T03:05:20.258Z,9.888889
2024-05-09T03:06:19.937Z,9.888889
2024-05-09T03:07:20.449Z,9.833333
2024-05-09T03:08:20.353Z,9.833333
2024-05-09T03:09:20.326Z,9.833333
2024-05-09T03:10:22.571Z,9.833333
2024-05-09T03:11:18.476Z,9.777778
2024-05-09T03:12:20.647Z,9.777778
2024-05-09T03:13:18.559Z,9.777778
2024-05-09T03:14:20.066Z,9.777778
2024-05-09T03:15:20.046Z,9.777778
2024-05-09T03:16:20.124Z,9.777778
2024-05-09T03:17:20.198Z,9.777778
2024-05-09T03:18:20.333Z,9.833333
2024-05-09T03:19:20.499Z,9.777778
2024-05-09T03:20:23.809Z,9.833333
2024-05-09T03:21:20.379Z,9.777778
2024-05-09T03:22:18.440Z,9.777778
2024-05-09T03:23:19.957Z,9.777778
2024-05-09T03:24:20.020Z,9.777778
2024-05-09T03:25:20.052Z,9.722222
2024-05-09T03:26:20.081Z,9.722222
2024-05-09T03:27:18.675Z,9.722222
2024-05-09T03:28:20.134Z,9.722222
2024-05-09T03:29:20.338Z,9.722222
2024-05-09T03:30:26.212Z,9.722222
2024-05-09T03:31:20.320Z,9.722222
2024-05-09T03:32:20.354Z,9.722222
2024-05-09T03:33:20.238Z,9.722222
2024-05-09T03:34:18.701Z,9.722222
2024-05-09T03:35:20.066Z,9.722222
2024-05-09T03:36:19.930Z,9.722222
2024-05-09T03:37:20.047Z,9.666667
2024-05-09T03:38:20.165Z,9.666667
2024-05-09T03:39:20.454Z,9.666667
2024-05-09T03:40:23.626Z,9.666667
2024-05-09T03:41:18.737Z,9.666667
2024-05-09T03:42:21.237Z,9.611111
2024-05-09T03:43:18.352Z,9.666667
2024-05-09T03:44:18.451Z,9.666667
2024-05-09T03:45:18.402Z,9.666667
2024-05-09T03:46:19.414Z,9.666667
2024-05-09T03:47:20.349Z,9.666667
2024-05-09T03:48:18.813Z,9.666667
2024-05-09T03:49:20.645Z,9.666667
2024-05-09T03:50:26.341Z,9.666667
2024-05-09T03:51:20.214Z,9.722222
2024-05-09T03:52:20.267Z,9.722222
2024-05-09T03:53:20.472Z,9.722222
2024-05-09T03:54:20.457Z,9.722222
2024-05-09T03:55:18.917Z,9.777778
2024-05-09T03:56:18.435Z,9.777778
2024-05-09T03:57:18.524Z,9.777778
2024-05-09T03:58:18.503Z,9.777778
2024-05-09T03:59:20.108Z,9.777778
2024-05-09T04:00:30.085Z,9.833333
2024-05-09T04:01:21.197Z,9.833333
2024-05-09T04:02:18.780Z,9.833333
2024-05-09T04:03:20.565Z,9.833333
2024-05-09T04:04:20.363Z,9.888889
2024-05-09T04:05:20.413Z,9.888889
2024-05-09T04:06:18.354Z,9.888889
2024-05-09T04:07:18.413Z,9.888889
2024-05-09T04:08:18.569Z,9.888889
2024-05-09T04:09:18.981Z,9.944444
2024-05-09T04:10:27.747Z,9.944444
2024-05-09T04:11:21.012Z,9.944444
2024-05-09T04:12:20.270Z,9.944444
2024-05-09T04:13:20.640Z,9.944444
2024-05-09T04:14:20.440Z,9.944444
2024-05-09T04:15:20.329Z,9.944444
2024-05-09T04:16:18.825Z,10.000000
2024-05-09T04:17:20.450Z,10.000000
2024-05-09T04:18:18.660Z,9.944444
2024-05-09T04:19:18.656Z,10.000000
2024-05-09T04:20:29.105Z,10.000000
2024-05-09T04:21:19.967Z,10.000000
2024-05-09T04:22:20.593Z,10.000000
2024-05-09T04:23:18.716Z,10.000000
2024-05-09T04:24:20.209Z,10.000000
2024-05-09T04:25:20.232Z,10.000000
2024-05-09T04:26:20.310Z,10.000000
2024-05-09T04:27:18.879Z,10.055556
2024-05-09T04:28:18.327Z,10.111111
2024-05-09T04:29:18.506Z,10.055556
2024-05-09T04:30:26.256Z,10.111111
2024-05-09T04:31:18.501Z,10.111111
2024-05-09T04:32:18.712Z,10.166667
2024-05-09T04:33:20.535Z,10.166667
2024-05-09T04:34:20.232Z,10.166667
2024-05-09T04:35:20.200Z,10.166667
2024-05-09T04:36:20.171Z,10.222222
2024-05-09T04:37:18.785Z,10.222222
2024-05-09T04:38:20.297Z,10.277778
2024-05-09T04:39:18.940Z,10.277778
2024-05-09T04:40:27.688Z,10.277778
2024-05-09T04:41:18.535Z,10.277778
2024-05-09T04:42:18.676Z,10.277778
2024-05-09T04:43:18.503Z,10.333333
2024-05-09T04:44:18.610Z,10.333333
2024-05-09T04:45:20.317Z,10.333333
2024-05-09T04:46:20.154Z,10.333333
2024-05-09T04:47:20.360Z,10.388889
2024-05-09T04:48:20.457Z,10.333333
2024-05-09T04:49:20.431Z,10.388889
2024-05-09T04:50:29.355Z,10.444444
2024-05-09T04:51:18.956Z,10.444444
2024-05-09T04:52:18.479Z,10.444444
2024-05-09T04:53:18.594Z,10.444444
2024-05-09T04:54:26.190Z,10.444444
2024-05-09T04:55:18.552Z,10.500000
2024-05-09T04:56:18.740Z,10.500000
2024-05-09T04:57:20.170Z,10.500000
2024-05-09T04:58:18.816Z,10.500000
2024-05-09T04:59:20.359Z,10.500000
2024-05-09T05:00:28.499Z,10.555556
2024-05-09T05:01:18.347Z,10.555556
2024-05-09T05:02:18.416Z,10.611111
2024-05-09T05:03:18.714Z,10.611111
2024-05-09T05:04:18.639Z,10.666667
2024-05-09T05:05:19.150Z,10.666667
2024-05-09T05:06:18.610Z,10.722222
2024-05-09T05:07:20.183Z,10.722222
2024-05-09T05:08:20.319Z,10.777778
2024-05-09T05:09:20.243Z,10.777778
2024-05-09T05:10:25.496Z,10.833333
2024-05-09T05:11:20.289Z,10.888889
2024-05-09T05:12:19.059Z,10.888889
2024-05-09T05:13:19.307Z,10.888889
2024-05-09T05:14:18.538Z,10.888889
2024-05-09T05:15:18.534Z,10.944444
2024-05-09T05:16:18.579Z,10.944444
2024-05-09T05:17:18.649Z,10.944444
2024-05-09T05:18:20.745Z,10.944444
2024-05-09T05:19:19.221Z,10.944444
2024-05-09T05:20:27.323Z,10.944444
2024-05-09T05:21:21.075Z,10.944444
2024-05-09T05:22:20.433Z,11.000000
2024-05-09T05:23:18.450Z,11.000000
2024-05-09T05:24:18.379Z,11.000000
2024-05-09T05:25:18.404Z,11.055556
2024-05-09T05:26:19.098Z,11.111111
2024-05-09T05:27:18.593Z,11.166667
2024-05-09T05:28:18.584Z,11.222222
2024-05-09T05:29:20.921Z,11.277778
2024-05-09T05:30:24.957Z,11.388889
2024-05-09T05:31:20.270Z,11.444444
2024-05-09T05:32:20.515Z,11.500000
2024-05-09T05:33:19.682Z,11.555556
2024-05-09T05:34:18.424Z,11.611111
2024-05-09T05:35:20.931Z,11.666667
2024-05-09T05:36:18.510Z,11.722222
2024-05-09T05:37:18.442Z,11.722222
2024-05-09T05:38:19.145Z,11.777778
2024-05-09T05:39:18.750Z,11.777778
2024-05-09T05:40:28.130Z,11.833333
2024-05-09T05:41:18.714Z,11.833333
2024-05-09T05:42:18.721Z,11.888889
2024-05-09T05:43:20.240Z,11.888889
2024-05-09T05:44:20.268Z,11.888889
2024-05-09T05:45:20.307Z,11.944444
2024-05-09T05:46:18.533Z,11.944444
2024-05-09T05:47:18.999Z,11.944444
2024-05-09T05:48:18.943Z,11.944444
2024-05-09T05:49:18.748Z,12.000000
2024-05-09T05:50:27.306Z,12.055556
2024-05-09T05:51:18.771Z,12.000000
2024-05-09T05:52:18.683Z,12.055556
2024-05-09T05:53:18.743Z,12.055556
2024-05-09T05:54:18.704Z,12.055556
2024-05-09T05:55:20.318Z,12.055556
2024-05-09T05:56:18.908Z,12.055556
2024-05-09T05:57:20.350Z,12.111111
2024-05-09T05:58:18.501Z,12.111111
2024-05-09T05:59:18.553Z,12.111111
2024-05-09T06:00:28.990Z,12.166667
2024-05-09T06:01:19.075Z,12.166667
2024-05-09T06:02:18.743Z,12.166667
2024-05-09T06:03:18.739Z,12.166667
2024-05-09T06:04:18.739Z,12.222222
2024-05-09T06:05:20.342Z,12.222222
2024-05-09T06:06:20.277Z,12.277778
2024-05-09T06:07:20.322Z,12.277778
2024-05-09T06:08:18.959Z,12.333333
2024-05-09T06:09:18.390Z,12.333333
2024-05-09T06:10:25.201Z,12.333333
2024-05-09T06:11:18.570Z,12.333333
2024-05-09T06:12:18.817Z,12.333333
2024-05-09T06:13:18.605Z,12.333333
2024-05-09T06:14:18.716Z,12.388889
2024-05-09T06:15:19.170Z,12.388889
2024-05-09T06:16:18.723Z,12.388889
2024-05-09T06:17:18.834Z,12.444444
2024-05-09T06:18:20.502Z,12.444444
2024-05-09T06:19:20.730Z,12.444444
2024-05-09T06:20:23.916Z,12.444444
2024-05-09T06:21:18.544Z,12.500000
2024-05-09T06:22:18.999Z,12.444444
2024-05-09T06:23:18.689Z,12.500000
2024-05-09T06:24:18.573Z,12.555556
2024-05-09T06:25:18.598Z,12.555556
2024-05-09T06:26:18.805Z,12.555556
2024-05-09T06:27:18.675Z,12.666667
2024-05-09T06:28:18.723Z,12.666667
2024-05-09T06:29:18.869Z,12.666667
2024-05-09T06:30:29.855Z,12.722222
2024-05-09T06:31:20.408Z,12.777778
2024-05-09T06:32:18.607Z,12.777778
2024-05-09T06:33:18.806Z,12.777778
2024-05-09T06:34:18.804Z,12.833333
2024-05-09T06:35:18.722Z,12.833333
2024-05-09T06:36:19.118Z,12.888889
2024-05-09T06:37:18.681Z,12.888889
2024-05-09T06:38:18.738Z,12.944444
2024-05-09T06:39:18.765Z,12.944444
2024-05-09T06:40:25.737Z,13.055556
2024-05-09T06:41:18.374Z,13.055556
2024-05-09T06:42:18.318Z,13.111111
2024-05-09T06:43:20.056Z,13.166667
2024-05-09T06:44:18.491Z,13.222222
2024-05-09T06:45:18.669Z,13.333333
2024-05-09T06:46:18.614Z,13.388889
2024-05-09T06:47:18.764Z,13.444444
2024-05-09T06:48:19.317Z,13.555556
2024-05-09T06:49:19.339Z,13.555556
2024-05-09T06:50:24.005Z,13.666667
2024-05-09T06:51:18.840Z,13.722222
2024-05-09T06:52:18.861Z,13.833333
2024-05-09T06:53:18.526Z,13.944444
2024-05-09T06:54:18.495Z,14.000000
2024-05-09T06:55:18.732Z,14.055556
2024-05-09T06:56:18.544Z,14.166667
2024-05-09T06:57:19.052Z,14.222222
2024-05-09T06:58:18.630Z,14.333333
2024-05-09T06:59:18.684Z,14.444444
2024-05-09T07:00:27.231Z,14.500000
2024-05-09T07:01:19.270Z,14.555556
2024-05-09T07:02:18.929Z,14.722222
2024-05-09T07:03:19.687Z,14.777778
2024-05-09T07:04:18.939Z,14.888889
2024-05-09T07:05:18.496Z,14.888889
2024-05-09T07:06:18.527Z,15.000000
2024-05-09T07:07:18.552Z,15.055556
2024-05-09T07:08:19.018Z,15.055556
2024-05-09T07:09:18.626Z,15.055556
2024-05-09T07:10:25.750Z,15.111111
2024-05-09T07:11:19.251Z,15.166667
2024-05-09T07:12:18.815Z,15.277778
2024-05-09T07:13:19.836Z,15.277778
2024-05-09T07:14:19.014Z,15.333333
2024-05-09T07:15:18.831Z,15.444444
2024-05-09T07:16:18.477Z,15.555556
2024-05-09T07:17:18.574Z,15.555556
2024-05-09T07:18:19.885Z,15.611111
2024-05-09T07:19:19.216Z,15.666667
2024-05-09T07:20:23.805Z,15.722222
2024-05-09T07:21:18.778Z,15.777778
2024-05-09T07:22:18.697Z,15.777778
2024-05-09T07:23:19.043Z,15.777778
2024-05-09T07:24:18.800Z,15.833333
2024-05-09T07:25:19.268Z,15.888889
2024-05-09T07:26:19.044Z,15.944444
2024-05-09T07:27:18.984Z,15.944444
2024-05-09T07:28:18.619Z,16.000000
2024-05-09T07:29:18.576Z,16.055556
2024-05-09T07:30:23.757Z,16.111111
2024-05-09T07:31:18.536Z,16.166667
2024-05-09T07:32:19.278Z,16.166667
2024-05-09T07:33:19.894Z,16.166667
2024-05-09T07:34:19.171Z,16.222222
2024-05-09T07:35:18.967Z,16.277778
2024-05-09T07:36:18.788Z,16.277778
2024-05-09T07:37:18.814Z,16.333333
2024-05-09T07:38:19.262Z,16.333333
2024-05-09T07:39:19.385Z,16.388889
2024-05-09T07:40:28.465Z,16.444444
2024-05-09T07:41:18.589Z,16.444444
2024-05-09T07:42:19.042Z,16.444444
2024-05-09T07:43:18.583Z,16.444444
2024-05-09T07:44:18.709Z,16.500000
2024-05-09T07:45:40.455Z,16.500000
2024-05-09T07:47:14.515Z,16.500000
2024-05-09T07:48:56.839Z,16.500000
2024-05-09T07:50:01.346Z,16.500000
2024-05-09T07:51:32.557Z,16.611111
2024-05-09T07:52:38.189Z,16.611111
2024-05-09T07:53:22.085Z,16.611111
2024-05-09T07:53:36.429Z,16.666667
2024-05-09T07:53:46.337Z,16.722222
2024-05-09T07:53:52.567Z,16.777778
2024-05-09T07:53:58.283Z,16.777778
2024-05-09T07:54:01.647Z,16.833333
2024-05-09T07:54:18.819Z,16.888889
2024-05-09T07:55:18.968Z,16.888889
2024-05-09T07:56:20.389Z,16.944444
2024-05-09T07:57:18.848Z,16.944444
2024-05-09T07:58:18.853Z,17.000000
2024-05-09T07:59:18.799Z,17.055556
2024-05-09T08:00:26.790Z,17.055556
2024-05-09T08:01:19.371Z,17.111111
2024-05-09T08:02:19.103Z,17.166667
2024-05-09T08:03:18.557Z,17.222222
2024-05-09T08:04:18.801Z,17.277778
2024-05-09T08:05:21.206Z,17.333333
2024-05-09T08:06:20.400Z,17.333333
2024-05-09T08:07:19.244Z,17.388889
2024-05-09T08:08:18.805Z,17.388889
2024-05-09T08:09:21.156Z,17.444444
2024-05-09T08:10:24.429Z,17.500000
2024-05-09T08:11:19.100Z,17.500000
2024-05-09T08:12:18.902Z,17.555556
2024-05-09T08:13:19.115Z,17.666667
2024-05-09T08:14:19.004Z,17.666667
2024-05-09T08:15:18.603Z,17.777778
2024-05-09T08:16:18.737Z,17.777778
2024-05-09T08:17:18.963Z,17.833333
2024-05-09T08:18:20.571Z,17.888889
2024-05-09T08:19:18.904Z,17.944444
2024-05-09T08:20:26.907Z,18.000000
2024-05-09T08:21:19.390Z,18.055556
2024-05-09T08:22:18.884Z,18.166667
2024-05-09T08:23:19.012Z,18.333333
2024-05-09T08:24:18.917Z,18.388889
2024-05-09T08:25:19.145Z,18.444444
2024-05-09T08:26:19.006Z,18.444444
2024-05-09T08:27:18.623Z,18.333333
2024-05-09T08:28:19.331Z,18.388889
2024-05-09T08:29:18.689Z,18.333333
2024-05-09T08:30:24.926Z,18.333333
2024-05-09T08:31:18.826Z,18.388889
2024-05-09T08:32:18.822Z,18.444444
2024-05-09T08:33:18.968Z,18.388889
2024-05-09T08:34:19.031Z,18.388889
2024-05-09T08:35:19.403Z,18.388889
2024-05-09T08:36:18.976Z,18.444444
2024-05-09T08:37:23.393Z,18.555556
2024-05-09T08:38:18.539Z,18.666667
2024-05-09T08:39:18.568Z,18.777778
2024-05-09T08:40:27.276Z,18.833333
2024-05-09T08:41:18.741Z,18.888889
2024-05-09T08:42:19.339Z,18.833333
2024-05-09T08:43:19.168Z,18.888889
2024-05-09T08:44:18.888Z,18.888889
2024-05-09T08:45:18.933Z,18.833333
2024-05-09T08:46:19.380Z,18.888889
2024-05-09T08:47:19.087Z,19.000000
2024-05-09T08:48:18.764Z,19.055556
2024-05-09T08:49:19.701Z,19.000000
2024-05-09T08:50:28.946Z,19.111111
2024-05-09T08:51:18.629Z,19.111111
2024-05-09T08:52:18.689Z,19.000000
2024-05-09T08:53:18.704Z,18.944444
2024-05-09T08:54:18.818Z,19.000000
2024-05-09T08:55:18.918Z,19.000000
2024-05-09T08:56:19.377Z,19.166667
2024-05-09T08:57:18.944Z,19.111111
2024-05-09T08:58:19.140Z,19.111111
2024-05-09T08:59:19.106Z,19.277778
2024-05-09T09:00:29.077Z,19.388889
2024-05-09T09:01:18.631Z,19.388889
2024-05-09T09:02:19.983Z,19.222222
2024-05-09T09:03:19.943Z,19.111111
2024-05-09T09:04:19.105Z,18.944444
2024-05-09T09:05:19.149Z,19.000000
2024-05-09T09:06:18.949Z,18.944444
2024-05-09T09:07:19.006Z,18.833333
2024-05-09T09:08:18.978Z,18.888889
2024-05-09T09:09:18.941Z,18.888889
2024-05-09T09:10:29.014Z,19.111111
2024-05-09T09:11:19.591Z,19.277778
2024-05-09T09:12:19.153Z,19.333333
2024-05-09T09:13:18.770Z,19.444444
2024-05-09T09:14:18.925Z,19.388889
2024-05-09T09:15:18.850Z,19.222222
2024-05-09T09:16:18.989Z,19.055556
2024-05-09T09:17:19.422Z,19.000000
2024-05-09T09:18:19.308Z,19.111111
2024-05-09T09:19:19.345Z,19.222222
2024-05-09T09:20:26.224Z,19.166667
2024-05-09T09:21:19.085Z,19.166667
2024-05-09T09:22:19.080Z,19.055556
2024-05-09T09:23:19.574Z,18.944444
2024-05-09T09:24:19.634Z,19.000000
2024-05-09T09:25:18.844Z,19.055556
2024-05-09T09:26:18.824Z,19.055556
2024-05-09T09:27:18.867Z,19.111111
2024-05-09T09:28:18.858Z,19.166667
2024-05-09T09:29:18.924Z,19.388889
2024-05-09T09:30:31.500Z,19.500000
2024-05-09T09:31:19.489Z,19.555556
2024-05-09T09:32:19.110Z,19.666667
2024-05-09T09:33:19.471Z,19.888889
2024-05-09T09:34:21.577Z,20.000000
2024-05-09T09:35:18.632Z,20.055556
2024-05-09T09:36:18.719Z,20.055556
2024-05-09T09:37:18.751Z,20.277778
2024-05-09T09:38:19.252Z,20.166667
2024-05-09T09:39:18.882Z,20.055556
2024-05-09T09:40:22.302Z,19.888889
2024-05-09T09:41:18.981Z,19.833333
2024-05-09T09:42:18.995Z,19.666667
2024-05-09T09:43:19.244Z,19.666667
2024-05-09T09:44:19.101Z,19.833333
2024-05-09T09:45:19.569Z,20.000000
2024-05-09T09:46:19.204Z,20.000000
2024-05-09T09:47:19.286Z,20.166667
2024-05-09T09:48:18.834Z,20.222222
2024-05-09T09:49:19.008Z,20.277778
2024-05-09T09:50:27.057Z,20.500000
2024-05-09T09:51:18.811Z,20.722222
2024-05-09T09:52:19.639Z,20.777778
2024-05-09T09:53:18.998Z,20.722222
2024-05-09T09:54:19.005Z,20.666667
2024-05-09T09:55:21.930Z,20.555556
2024-05-09T09:56:19.054Z,20.333333
2024-05-09T09:57:19.117Z,20.166667
2024-05-09T09:58:18.778Z,20.000000
2024-05-09T09:59:19.181Z,19.944444
2024-05-09T10:00:24.544Z,20.000000
2024-05-09T10:01:18.957Z,20.111111
2024-05-09T10:02:19.212Z,19.944444
2024-05-09T10:03:19.303Z,19.833333
2024-05-09T10:04:19.299Z,19.833333
2024-05-09T10:05:19.064Z,19.888889
2024-05-09T10:06:19.564Z,19.944444
2024-05-09T10:07:19.116Z,20.055556
2024-05-09T10:08:19.174Z,20.111111
2024-05-09T10:09:19.235Z,20.166667
2024-05-09T10:10:31.490Z,20.111111
2024-05-09T10:11:18.821Z,20.111111
2024-05-09T10:12:18.913Z,20.055556
2024-05-09T10:13:19.484Z,20.222222
2024-05-09T10:14:18.946Z,20.277778
2024-05-09T10:15:18.958Z,20.388889
2024-05-09T10:16:19.227Z,20.555556
2024-05-09T10:17:19.109Z,20.611111
2024-05-09T10:18:19.317Z,20.666667
2024-05-09T10:19:19.210Z,20.666667
2024-05-09T10:20:22.192Z,20.555556
2024-05-09T10:21:19.207Z,20.611111
2024-05-09T10:22:18.792Z,20.444444
2024-05-09T10:23:18.894Z,20.333333
2024-05-09T10:24:18.876Z,20.277778
2024-05-09T10:25:18.908Z,20.444444
2024-05-09T10:26:18.942Z,20.444444
2024-05-09T10:27:19.580Z,20.500000
2024-05-09T10:28:19.597Z,20.500000
2024-05-09T10:29:19.091Z,20.500000
2024-05-09T10:30:25.957Z,20.555556
2024-05-09T10:31:19.194Z,20.444444
2024-05-09T10:32:19.341Z,20.388889
2024-05-09T10:33:19.342Z,20.277778
2024-05-09T10:34:19.763Z,20.222222
2024-05-09T10:35:18.910Z,20.111111
2024-05-09T10:36:18.823Z,20.111111
2024-05-09T10:37:19.002Z,20.111111
2024-05-09T10:38:18.988Z,20.166667
2024-05-09T10:39:19.034Z,20.277778
2024-05-09T10:40:25.865Z,20.222222
2024-05-09T10:41:19.655Z,20.166667
2024-05-09T10:42:19.195Z,20.222222
2024-05-09T10:43:19.261Z,20.166667
2024-05-09T10:44:19.214Z,20.277778
2024-05-09T10:45:18.733Z,20.277778
2024-05-09T10:46:20.052Z,20.500000
2024-05-09T10:47:19.008Z,20.833333
2024-05-09T10:48:19.419Z,20.944444
2024-05-09T10:49:19.080Z,20.833333
2024-05-09T10:50:25.762Z,20.666667
2024-05-09T10:51:19.063Z,20.611111
2024-05-09T10:52:19.227Z,20.555556
2024-05-09T10:53:19.148Z,20.555556
2024-05-09T10:54:19.240Z,20.666667
2024-05-09T10:55:19.786Z,20.611111
2024-05-09T10:56:18.705Z,20.611111
2024-05-09T10:57:18.769Z,20.722222
2024-05-09T10:58:19.086Z,20.777778
2024-05-09T10:59:18.843Z,20.777778
2024-05-09T11:00:27.477Z,20.833333
2024-05-09T11:01:19.149Z,20.833333
2024-05-09T11:02:19.624Z,20.833333
2024-05-09T11:03:19.204Z,20.833333
2024-05-09T11:04:19.379Z,20.833333
2024-05-09T11:05:19.520Z,20.888889
2024-05-09T11:06:19.232Z,21.000000
2024-05-09T11:07:19.431Z,21.055556
2024-05-09T11:08:19.287Z,21.222222
2024-05-09T11:09:19.380Z,21.333333
2024-05-09T11:10:27.228Z,21.277778
2024-05-09T11:11:18.959Z,21.111111
2024-05-09T11:12:20.633Z,21.055556
2024-05-09T11:13:19.139Z,21.000000
2024-05-09T11:14:19.148Z,20.888889
2024-05-09T11:15:19.286Z,20.777778
2024-05-09T11:16:20.215Z,20.722222
2024-05-09T11:17:19.292Z,20.666667
2024-05-09T11:18:20.956Z,20.666667
2024-05-09T11:19:19.735Z,20.666667
2024-05-09T11:20:26.836Z,20.555556
2024-05-09T11:21:19.375Z,20.611111
2024-05-09T11:22:18.962Z,20.666667
2024-05-09T11:23:19.610Z,20.666667
2024-05-09T11:24:18.998Z,20.722222
2024-05-09T11:25:19.285Z,20.666667
2024-05-09T11:26:19.094Z,20.722222
2024-05-09T11:27:19.178Z,20.666667
2024-05-09T11:28:19.332Z,20.722222